createdAt,value
2022-11-07T00:01:46.820Z,7.59
2022-11-07T00:04:14.266Z,7.62
2022-11-07T00:06:42.010Z,7.62
2022-11-07T00:09:08.948Z,7.58
2022-11-07T00:11:35.927Z,7.62
2022-11-07T00:14:02.907Z,7.64
2022-11-07T00:16:29.916Z,7.61
2022-11-07T00:18:56.879Z,7.62
2022-11-07T00:21:24.087Z,7.64
2022-11-07T00:23:51.180Z,7.64
2022-11-07T00:26:18.338Z,7.65
2022-11-07T00:28:45.797Z,7.65
2022-11-07T00:31:14.421Z,7.64
2022-11-07T00:33:42.744Z,7.66
2022-11-07T00:36:10.457Z,7.61
2022-11-07T00:38:37.746Z,7.63
2022-11-07T00:41:06.686Z,7.62
2022-11-07T00:43:34.396Z,7.62
2022-11-07T00:46:03.159Z,7.60
2022-11-07T00:48:30.697Z,7.55
2022-11-07T00:50:58.097Z,7.52
2022-11-07T00:53:25.160Z,7.52
2022-11-07T00:55:52.285Z,7.49
2022-11-07T00:58:19.321Z,7.43
2022-11-07T01:00:46.318Z,7.42
2022-11-07T01:03:31.885Z,7.48
2022-11-07T01:06:01.602Z,7.50
2022-11-07T01:08:29.595Z,7.50
2022-11-07T01:10:58.158Z,7.50
2022-11-07T01:13:26.441Z,7.42
2022-11-07T01:15:53.790Z,7.45
2022-11-07T01:18:21.191Z,7.46
2022-11-07T01:20:49.763Z,7.44
2022-11-07T01:23:18.296Z,7.47
2022-11-07T01:25:45.799Z,7.42
2022-11-07T01:28:12.764Z,7.44
2022-11-07T01:30:44.419Z,7.50
2022-11-07T01:33:11.797Z,7.53
2022-11-07T01:35:39.098Z,7.56
2022-11-07T01:38:06.558Z,7.57
2022-11-07T01:40:56.678Z,7.58
2022-11-07T01:43:23.619Z,7.64
2022-11-07T01:45:50.618Z,7.67
2022-11-07T01:48:17.700Z,7.68
2022-11-07T01:50:44.811Z,7.66
2022-11-07T01:53:12.139Z,7.67
2022-11-07T01:55:39.338Z,7.65
2022-11-07T01:58:09.301Z,7.66
2022-11-07T02:00:37.238Z,7.62
2022-11-07T02:03:15.678Z,7.62
2022-11-07T02:06:06.718Z,7.58
2022-11-07T02:08:34.745Z,7.58
2022-11-07T02:11:03.999Z,7.60
2022-11-07T02:13:32.419Z,7.53
2022-11-07T02:16:00.282Z,7.52
2022-11-07T02:18:28.257Z,7.54
2022-11-07T02:20:59.658Z,7.49
2022-11-07T02:23:40.018Z,7.52
2022-11-07T02:26:07.053Z,7.49
2022-11-07T02:28:36.919Z,7.46
2022-11-07T02:31:04.077Z,7.52
2022-11-07T02:33:31.058Z,7.50
2022-11-07T02:35:58.618Z,7.52
2022-11-07T02:38:36.775Z,7.49
2022-11-07T02:41:09.619Z,7.47
2022-11-07T02:43:39.897Z,7.39
2022-11-07T02:46:10.377Z,7.43
2022-11-07T02:48:46.433Z,7.39
2022-11-07T02:51:13.757Z,7.44
2022-11-07T02:53:40.839Z,7.46
2022-11-07T02:56:08.438Z,7.46
2022-11-07T02:58:35.605Z,7.50
2022-11-07T03:01:07.224Z,7.53
2022-11-07T03:03:39.918Z,7.54
2022-11-07T03:06:08.939Z,7.58
2022-11-07T03:08:36.238Z,7.60
2022-11-07T03:11:03.977Z,7.57
2022-11-07T03:13:31.558Z,7.62
2022-11-07T03:15:58.759Z,7.64
2022-11-07T03:18:25.861Z,7.65
2022-11-07T03:20:52.961Z,7.66
2022-11-07T03:23:19.897Z,7.69
2022-11-07T03:25:46.958Z,7.73
2022-11-07T03:28:13.897Z,7.76
2022-11-07T03:30:40.837Z,7.78
2022-11-07T03:33:08.278Z,7.80
2022-11-07T03:35:35.519Z,7.82
2022-11-07T03:38:02.641Z,7.86
2022-11-07T03:40:29.699Z,7.87
2022-11-07T03:42:56.826Z,7.86
2022-11-07T03:45:23.963Z,7.95
2022-11-07T03:47:50.937Z,8.00
2022-11-07T03:50:20.518Z,8.01
2022-11-07T03:52:48.940Z,8.06
2022-11-07T03:55:18.453Z,8.11
2022-11-07T03:57:46.399Z,8.20
2022-11-07T04:00:14.822Z,8.26
2022-11-07T04:02:42.354Z,8.30
2022-11-07T04:05:10.208Z,8.32
2022-11-07T04:07:37.319Z,8.35
2022-11-07T04:10:04.826Z,8.40
2022-11-07T04:12:50.538Z,8.46
2022-11-07T04:15:36.039Z,8.46
2022-11-07T04:18:03.138Z,8.51
2022-11-07T04:20:30.161Z,8.56
2022-11-07T04:22:57.300Z,8.61
2022-11-07T04:25:44.462Z,8.63
2022-11-07T04:28:11.799Z,8.67
2022-11-07T04:30:38.700Z,8.70
2022-11-07T04:33:05.697Z,8.71
2022-11-07T04:35:33.559Z,8.72
2022-11-07T04:38:01.398Z,8.78
2022-11-07T04:40:29.499Z,8.80
2022-11-07T04:42:56.598Z,8.83
2022-11-07T04:45:24.168Z,8.84
2022-11-07T04:47:51.418Z,8.83
2022-11-07T04:50:20.123Z,8.80
2022-11-07T04:52:47.943Z,8.78
2022-11-07T04:55:26.699Z,8.73
2022-11-07T04:57:53.882Z,8.66
2022-11-07T05:00:21.139Z,8.67
2022-11-07T05:02:49.094Z,8.64
2022-11-07T05:05:17.097Z,8.63
2022-11-07T05:07:44.562Z,8.63
2022-11-07T05:10:23.837Z,8.56
2022-11-07T05:12:51.247Z,8.61
2022-11-07T05:15:18.740Z,8.67
2022-11-07T05:17:46.517Z,8.69
2022-11-07T05:20:27.933Z,8.76
2022-11-07T05:23:16.166Z,8.80
2022-11-07T05:25:45.732Z,8.84
2022-11-07T05:28:15.620Z,8.83
2022-11-07T05:30:44.613Z,8.87
2022-11-07T05:33:14.221Z,8.89
2022-11-07T05:35:41.862Z,8.91
2022-11-07T05:38:09.694Z,8.84
2022-11-07T05:40:38.654Z,8.88
2022-11-07T05:43:08.491Z,8.81
2022-11-07T05:45:38.052Z,8.88
2022-11-07T05:48:07.572Z,8.90
2022-11-07T05:50:35.533Z,8.92
2022-11-07T05:53:03.285Z,8.90
2022-11-07T05:55:30.612Z,8.91
2022-11-07T05:57:58.433Z,8.93
2022-11-07T06:00:27.290Z,8.96
2022-11-07T06:03:02.040Z,8.91
2022-11-07T06:05:29.892Z,8.80
2022-11-07T06:07:57.131Z,8.78
2022-11-07T06:10:24.694Z,8.80
2022-11-07T06:13:02.969Z,8.80
2022-11-07T06:15:32.012Z,8.87
2022-11-07T06:18:07.851Z,8.92
2022-11-07T06:20:35.893Z,8.94
2022-11-07T06:23:05.571Z,8.92
2022-11-07T06:25:33.659Z,8.95
2022-11-07T06:28:03.458Z,9.04
2022-11-07T06:30:31.139Z,8.96
2022-11-07T06:33:02.332Z,8.93
2022-11-07T06:35:30.418Z,8.92
2022-11-07T06:38:01.013Z,8.98
2022-11-07T06:40:28.341Z,9.00
2022-11-07T06:42:55.538Z,8.98
2022-11-07T06:45:22.932Z,8.88
2022-11-07T06:47:50.090Z,8.88
2022-11-07T06:50:17.375Z,8.80
2022-11-07T06:52:44.533Z,8.81
2022-11-07T06:55:11.774Z,8.81
2022-11-07T06:57:38.976Z,8.81
2022-11-07T07:00:07.054Z,8.84
2022-11-07T07:02:57.268Z,8.88
2022-11-07T07:05:22.556Z,8.88
2022-11-07T07:07:50.014Z,8.95
2022-11-07T07:10:17.336Z,9.00
2022-11-07T07:12:44.853Z,9.07
2022-11-07T07:15:12.130Z,9.11
2022-11-07T07:17:39.343Z,9.20
2022-11-07T07:20:07.260Z,9.26
2022-11-07T07:22:34.412Z,9.35
2022-11-07T07:25:01.731Z,9.45
2022-11-07T07:27:28.895Z,9.52
2022-11-07T07:29:56.135Z,9.51
2022-11-07T07:32:25.535Z,9.53
2022-11-07T07:34:53.092Z,9.59
2022-11-07T07:37:20.212Z,9.67
2022-11-07T07:39:47.371Z,9.65
2022-11-07T07:42:14.611Z,9.64
2022-11-07T07:44:44.980Z,9.61
2022-11-07T07:47:12.216Z,9.57
2022-11-07T07:49:39.536Z,9.56
2022-11-07T07:52:06.855Z,9.58
2022-11-07T07:54:34.012Z,9.60
2022-11-07T07:57:01.779Z,9.67
2022-11-07T07:59:28.975Z,9.74
2022-11-07T08:01:57.335Z,9.76
2022-11-07T08:04:25.053Z,9.75
2022-11-07T08:06:52.372Z,9.93
2022-11-07T08:09:19.531Z,10.07
2022-11-07T08:11:46.812Z,10.16
2022-11-07T08:14:13.973Z,10.30
2022-11-07T08:16:41.213Z,10.41
2022-11-07T08:19:08.496Z,10.49
2022-11-07T08:21:35.698Z,10.52
2022-11-07T08:24:03.826Z,10.65
2022-11-07T08:26:31.652Z,10.80
2022-11-07T08:28:58.856Z,10.88
2022-11-07T08:31:26.137Z,11.00
2022-11-07T08:33:53.305Z,11.12
2022-11-07T08:36:20.653Z,11.26
2022-11-07T08:38:47.857Z,11.39
2022-11-07T08:41:18.415Z,11.51
2022-11-07T08:43:49.574Z,11.66
2022-11-07T08:46:16.816Z,11.83
2022-11-07T08:48:44.172Z,11.95
2022-11-07T08:51:11.293Z,12.10
2022-11-07T08:53:38.658Z,12.26
2022-11-07T08:56:10.579Z,12.42
2022-11-07T08:58:38.533Z,12.53
2022-11-07T09:01:10.402Z,12.76
2022-11-07T09:03:50.702Z,12.92
2022-11-07T09:06:20.412Z,13.10
2022-11-07T09:08:47.691Z,13.31
2022-11-07T09:11:16.080Z,13.49
2022-11-07T09:13:43.251Z,13.73
2022-11-07T09:16:11.262Z,13.92
2022-11-07T09:18:38.705Z,14.15
2022-11-07T09:21:06.181Z,14.40
2022-11-07T09:23:33.251Z,14.54
2022-11-07T09:26:01.417Z,14.80
2022-11-07T09:28:29.373Z,14.98
2022-11-07T09:30:58.300Z,15.20
2022-11-07T09:33:26.374Z,15.43
2022-11-07T09:35:53.373Z,15.56
2022-11-07T09:38:20.621Z,15.80
2022-11-07T09:40:53.139Z,16.01
2022-11-07T09:43:33.534Z,16.13
2022-11-07T09:46:35.013Z,16.48
2022-11-07T09:49:20.778Z,16.62
2022-11-07T09:51:59.613Z,16.66
2022-11-07T09:54:29.784Z,16.93
2022-11-07T09:56:59.854Z,17.21
2022-11-07T09:59:59.372Z,17.41
2022-11-07T10:02:32.817Z,17.58
2022-11-07T10:05:03.423Z,17.80
2022-11-07T10:07:52.257Z,17.89
2022-11-07T10:10:54.375Z,18.08
2022-11-07T10:13:30.492Z,18.13
2022-11-07T10:16:15.830Z,18.36
2022-11-07T10:19:01.573Z,18.59
2022-11-07T10:21:45.732Z,18.72
2022-11-07T10:24:18.843Z,18.80
2022-11-07T10:26:46.613Z,18.77
2022-11-07T10:29:19.757Z,19.01
2022-11-07T10:32:04.211Z,19.00
2022-11-07T10:34:38.293Z,18.80
2022-11-07T10:37:05.463Z,18.80
2022-11-07T10:39:33.212Z,19.07
2022-11-07T10:42:11.333Z,19.21
2022-11-07T10:44:39.939Z,19.39
2022-11-07T10:47:25.174Z,19.40
2022-11-07T10:50:00.140Z,19.55
2022-11-07T10:52:28.732Z,19.54
2022-11-07T10:55:14.532Z,19.73
2022-11-07T10:57:42.863Z,19.88
2022-11-07T11:00:25.974Z,20.05
2022-11-07T11:02:56.418Z,20.21
2022-11-07T11:05:34.346Z,20.33
2022-11-07T11:08:16.041Z,20.39
2022-11-07T11:10:43.904Z,20.48
2022-11-07T11:13:34.492Z,20.50
2022-11-07T11:16:22.260Z,20.61
2022-11-07T11:18:50.301Z,20.67
2022-11-07T11:21:17.539Z,20.86
2022-11-07T11:23:46.932Z,20.48
2022-11-07T11:26:37.053Z,20.66
2022-11-07T11:29:09.454Z,20.88
2022-11-07T11:31:46.220Z,20.81
2022-11-07T11:34:16.172Z,21.25
2022-11-07T11:37:01.855Z,21.27
2022-11-07T11:39:47.585Z,21.40
2022-11-07T11:42:31.055Z,21.59
2022-11-07T11:45:04.290Z,21.79
2022-11-07T11:47:43.211Z,21.84
2022-11-07T11:50:14.229Z,21.74
2022-11-07T11:52:42.220Z,21.67
2022-11-07T11:55:17.943Z,21.77
2022-11-07T11:58:04.376Z,21.68
2022-11-07T12:00:38.059Z,22.02
2022-11-07T12:13:28.557Z,21.75
2022-11-07T12:16:18.856Z,21.71
2022-11-07T12:19:01.535Z,21.93
2022-11-07T12:21:51.503Z,21.82
2022-11-07T12:24:48.252Z,22.07
2022-11-07T12:27:25.713Z,22.26
2022-11-07T12:30:09.069Z,22.54
2022-11-07T12:33:01.017Z,23.18
2022-11-07T12:35:59.174Z,23.68
2022-11-07T12:38:50.578Z,24.74
2022-11-07T12:41:40.772Z,25.59
2022-11-07T12:44:34.652Z,26.50
2022-11-07T12:47:14.737Z,26.68
2022-11-07T12:50:31.058Z,27.38
2022-11-07T12:53:04.134Z,28.41
2022-11-07T12:55:54.376Z,29.09
2022-11-07T12:58:26.015Z,29.79
2022-11-07T13:00:54.169Z,30.35
2022-11-07T13:03:53.894Z,30.72
2022-11-07T13:06:53.293Z,31.10
2022-11-07T13:09:25.813Z,31.67
2022-11-07T13:12:06.691Z,32.05
2022-11-07T13:14:38.776Z,32.27
2022-11-07T13:17:20.267Z,31.69
2022-11-07T13:20:27.499Z,32.06
2022-11-07T13:22:59.493Z,31.81
2022-11-07T13:25:32.597Z,31.88
2022-11-07T13:28:06.533Z,31.70
2022-11-07T13:30:39.576Z,30.52
2022-11-07T13:33:07.140Z,29.30
2022-11-07T13:35:39.177Z,28.62
2022-11-07T13:38:16.897Z,27.41
2022-11-07T13:41:04.174Z,26.39
2022-11-07T13:43:42.536Z,25.16
2022-11-07T13:46:22.134Z,24.59
2022-11-07T13:48:54.865Z,23.54
2022-11-07T13:51:29.414Z,22.99
2022-11-07T13:54:17.454Z,22.33
2022-11-07T13:56:59.866Z,21.93
2022-11-07T13:59:27.014Z,21.53
2022-11-07T14:01:57.535Z,21.18
2022-11-07T14:04:28.380Z,20.69
2022-11-07T14:06:59.132Z,20.43
2022-11-07T14:09:29.215Z,20.14
2022-11-07T14:11:57.779Z,19.93
2022-11-07T14:14:27.374Z,19.69
2022-11-07T14:17:00.403Z,19.61
2022-11-07T14:19:28.651Z,19.41
2022-11-07T14:21:56.301Z,19.29
2022-11-07T14:24:29.853Z,19.12
2022-11-07T14:27:02.503Z,18.86
2022-11-07T14:29:30.211Z,18.58
2022-11-07T14:32:03.063Z,18.56
2022-11-07T14:34:30.817Z,18.39
2022-11-07T14:37:01.859Z,18.31
2022-11-07T14:39:32.973Z,18.19
2022-11-07T14:42:03.026Z,18.07
2022-11-07T14:44:54.387Z,17.95
2022-11-07T14:47:27.810Z,17.82
2022-11-07T14:49:56.094Z,17.70
2022-11-07T14:52:23.014Z,17.52
2022-11-07T14:54:57.534Z,17.42
2022-11-07T14:57:24.765Z,17.27
2022-11-07T14:59:52.180Z,17.19
2022-11-07T15:02:32.133Z,17.08
2022-11-07T15:05:09.730Z,16.97
2022-11-07T15:07:47.547Z,16.85
2022-11-07T15:10:25.063Z,16.74
2022-11-07T15:12:54.531Z,16.64
2022-11-07T15:15:24.936Z,16.52
2022-11-07T15:17:55.455Z,16.36
2022-11-07T15:20:32.942Z,16.21
2022-11-07T15:23:06.213Z,16.11
2022-11-07T15:25:35.382Z,16.01
2022-11-07T15:28:25.373Z,15.83
2022-11-07T15:30:55.891Z,15.68
2022-11-07T15:33:23.931Z,15.55
2022-11-07T15:35:56.332Z,15.40
2022-11-07T15:38:29.097Z,15.34
2022-11-07T15:40:56.375Z,15.28
2022-11-07T15:43:24.252Z,15.20
2022-11-07T15:45:53.694Z,15.12
2022-11-07T15:48:23.379Z,15.03
2022-11-07T15:50:50.737Z,14.92
2022-11-07T15:53:25.136Z,14.80
2022-11-07T15:55:54.502Z,14.72
2022-11-07T15:58:24.184Z,14.61
2022-11-07T16:00:52.536Z,14.53
2022-11-07T16:03:21.859Z,14.45
2022-11-07T16:05:50.732Z,14.39
2022-11-07T16:08:21.537Z,14.33
2022-11-07T16:10:55.979Z,14.24
2022-11-07T16:13:23.413Z,14.18
2022-11-07T16:16:01.011Z,14.14
2022-11-07T16:18:31.338Z,14.10
2022-11-07T16:20:58.453Z,14.06
2022-11-07T16:23:25.734Z,13.99
2022-11-07T16:25:52.891Z,13.89
2022-11-07T16:28:22.741Z,13.80
2022-11-07T16:30:50.853Z,13.69
2022-11-07T16:33:18.294Z,13.58
2022-11-07T16:35:48.854Z,13.49
2022-11-07T16:38:19.294Z,13.43
2022-11-07T16:40:47.415Z,13.35
2022-11-07T16:43:14.732Z,13.30
2022-11-07T16:45:54.421Z,13.23
2022-11-07T16:48:27.580Z,13.20
2022-11-07T16:50:57.106Z,13.20
2022-11-07T16:53:25.254Z,13.20
2022-11-07T16:55:54.199Z,13.19
2022-11-07T16:58:35.093Z,13.20
2022-11-07T17:01:06.103Z,13.18
2022-11-07T17:03:33.819Z,13.11
2022-11-07T17:06:03.939Z,13.10
2022-11-07T17:08:38.294Z,13.07
2022-11-07T17:11:06.097Z,13.01
2022-11-07T17:13:33.542Z,12.96
2022-11-07T17:16:00.813Z,12.91
2022-11-07T17:18:28.258Z,12.88
2022-11-07T17:20:55.975Z,12.83
2022-11-07T17:23:29.855Z,12.85
2022-11-07T17:26:02.658Z,12.81
2022-11-07T17:28:29.934Z,12.78
2022-11-07T17:30:57.094Z,12.76
2022-11-07T17:33:24.334Z,12.70
2022-11-07T17:35:55.262Z,12.67
2022-11-07T17:38:22.425Z,12.58
2022-11-07T17:40:49.492Z,12.57
2022-11-07T17:43:16.732Z,12.47
2022-11-07T17:45:44.019Z,12.48
2022-11-07T17:48:12.188Z,12.41
2022-11-07T17:50:41.191Z,12.37
2022-11-07T17:53:08.577Z,12.30
2022-11-07T17:55:36.053Z,12.22
2022-11-07T17:58:03.254Z,12.18
2022-11-07T18:00:30.535Z,12.17
2022-11-07T18:02:57.928Z,12.13
2022-11-07T18:05:31.799Z,12.12
2022-11-07T18:08:01.262Z,12.09
2022-11-07T18:10:28.332Z,12.05
2022-11-07T18:12:57.608Z,12.03
2022-11-07T18:15:24.732Z,12.02
2022-11-07T18:17:52.267Z,12.07
2022-11-07T18:20:19.414Z,12.03
2022-11-07T18:22:46.778Z,12.05
2022-11-07T18:25:13.908Z,12.04
2022-11-07T18:27:41.176Z,12.04
2022-11-07T18:30:09.090Z,11.98
2022-11-07T18:32:36.903Z,12.03
2022-11-07T18:35:07.456Z,12.01
2022-11-07T18:37:35.136Z,12.03
2022-11-07T18:40:02.453Z,12.02
2022-11-07T18:42:29.702Z,11.99
2022-11-07T18:44:57.371Z,11.93
2022-11-07T18:47:24.693Z,11.93
2022-11-07T18:49:56.891Z,11.92
2022-11-07T18:52:24.772Z,11.88
2022-11-07T18:54:52.335Z,11.82
2022-11-07T18:57:20.094Z,11.80
2022-11-07T18:59:47.787Z,11.78
2022-11-07T19:02:15.811Z,11.76
2022-11-07T19:04:46.780Z,11.74
2022-11-07T19:07:13.974Z,11.73
2022-11-07T19:09:41.375Z,11.67
2022-11-07T19:12:08.734Z,11.61
2022-11-07T19:14:35.976Z,11.58
2022-11-07T19:17:03.253Z,11.53
2022-11-07T19:19:30.452Z,11.46
2022-11-07T19:21:57.775Z,11.35
2022-11-07T19:24:25.052Z,11.21
2022-11-07T19:26:52.292Z,11.16
2022-11-07T19:29:19.488Z,11.11
2022-11-07T19:31:46.778Z,11.03
2022-11-07T19:34:14.065Z,10.99
2022-11-07T19:36:41.213Z,10.93
2022-11-07T19:39:08.660Z,10.90
2022-11-07T19:41:36.856Z,10.85
2022-11-07T19:44:05.245Z,10.83
2022-11-07T19:46:33.874Z,10.80
2022-11-07T19:49:01.217Z,10.76
2022-11-07T19:51:28.613Z,10.74
2022-11-07T19:53:58.389Z,10.71
2022-11-07T19:56:30.178Z,10.68
2022-11-07T19:58:58.861Z,10.62
2022-11-07T20:01:29.268Z,10.58
2022-11-07T20:03:57.340Z,10.54
2022-11-07T20:06:34.302Z,10.50
2022-11-07T20:09:02.044Z,10.48
2022-11-07T20:11:29.305Z,10.43
2022-11-07T20:14:02.689Z,10.42
2022-11-07T20:16:31.059Z,10.43
2022-11-07T20:18:58.931Z,10.41
2022-11-07T20:21:26.457Z,10.36
2022-11-07T20:23:57.388Z,10.38
2022-11-07T20:26:26.261Z,10.39
2022-11-07T20:28:53.668Z,10.39
2022-11-07T20:31:25.739Z,10.41
2022-11-07T20:33:54.941Z,10.37
2022-11-07T20:36:22.372Z,10.39
2022-11-07T20:38:50.464Z,10.35
2022-11-07T20:41:18.261Z,10.35
2022-11-07T20:43:45.414Z,10.31
2022-11-07T20:46:15.381Z,10.33
2022-11-07T20:48:43.817Z,10.32
2022-11-07T20:51:15.408Z,10.32
2022-11-07T20:53:49.514Z,10.30
2022-11-07T20:56:21.179Z,10.30
2022-11-07T20:58:49.214Z,10.34
2022-11-07T21:01:25.292Z,10.32
2022-11-07T21:03:53.134Z,10.36
2022-11-07T21:06:20.824Z,10.38
2022-11-07T21:08:49.861Z,10.36
2022-11-07T21:11:17.735Z,10.33
2022-11-07T21:13:51.495Z,10.32
2022-11-07T21:16:22.128Z,10.29
2022-11-07T21:18:50.985Z,10.31
2022-11-07T21:21:24.410Z,10.24
2022-11-07T21:23:52.303Z,10.23
2022-11-07T21:26:24.975Z,10.20
2022-11-07T21:28:52.814Z,10.18
2022-11-07T21:31:24.615Z,10.16
2022-11-07T21:33:52.413Z,10.14
2022-11-07T21:36:23.382Z,10.11
2022-11-07T21:38:50.695Z,10.06
2022-11-07T21:41:18.015Z,10.05
2022-11-07T21:43:45.331Z,10.01
2022-11-07T21:46:15.634Z,10.00
2022-11-07T21:48:44.014Z,9.96
2022-11-07T21:51:18.213Z,9.93
2022-11-07T21:53:46.457Z,9.90
2022-11-07T21:56:25.223Z,9.85
2022-11-07T21:58:55.015Z,9.86
2022-11-07T22:01:22.541Z,9.88
2022-11-07T22:04:09.686Z,9.88
2022-11-07T22:06:40.747Z,9.84
2022-11-07T22:09:09.902Z,9.84
2022-11-07T22:11:37.492Z,9.80
2022-11-07T22:14:04.977Z,9.82
2022-11-07T22:16:32.609Z,9.80
2022-11-07T22:19:00.775Z,9.76
2022-11-07T22:21:28.253Z,9.70
2022-11-07T22:23:56.615Z,9.70
2022-11-07T22:26:26.252Z,9.65
2022-11-07T22:28:54.300Z,9.64
2022-11-07T22:31:26.136Z,9.57
2022-11-07T22:33:54.970Z,9.55
2022-11-07T22:36:22.372Z,9.56
2022-11-07T22:38:50.491Z,9.52
2022-11-07T22:41:20.457Z,9.54
2022-11-07T22:43:49.057Z,9.50
2022-11-07T22:46:19.295Z,9.50
2022-11-07T22:48:47.895Z,9.48
2022-11-07T22:51:18.416Z,9.47
2022-11-07T22:53:45.692Z,9.46
2022-11-07T22:56:18.775Z,9.44
2022-11-07T22:58:47.251Z,9.41
2022-11-07T23:01:22.093Z,9.37
2022-11-07T23:03:50.777Z,9.35
2022-11-07T23:06:19.218Z,9.30
2022-11-07T23:08:46.972Z,9.28
2022-11-07T23:14:10.413Z,9.24
2022-11-07T23:16:40.454Z,9.23
2022-11-07T23:19:12.371Z,9.21
2022-11-07T23:21:40.141Z,9.14
2022-11-07T23:24:08.012Z,9.06
2022-11-07T23:26:36.013Z,8.95
2022-11-07T23:29:11.396Z,8.94
2022-11-07T23:31:44.335Z,8.94
2022-11-07T23:34:12.294Z,8.93
2022-11-07T23:36:44.093Z,8.95
2022-11-07T23:39:17.234Z,8.90
2022-11-07T23:41:45.338Z,8.85
2022-11-07T23:44:13.014Z,8.88
2022-11-07T23:46:59.056Z,8.87
2022-11-07T23:49:45.378Z,8.85
2022-11-07T23:52:12.833Z,8.88
2022-11-07T23:54:58.580Z,8.85
2022-11-07T23:57:26.011Z,8.83
